sensor_id;sensor_type;location;lat;lon;timestamp;temperature;humidity
76613;DHT22;65507;48.454;-2.058;2023-05-20T00:01:58;12.10;67.70
76613;DHT22;65507;48.454;-2.058;2023-05-20T00:04:23;12.10;67.90
76613;DHT22;65507;48.454;-2.058;2023-05-20T00:06:49;12.00;67.90
76613;DHT22;65507;48.454;-2.058;2023-05-20T00:09:14;12.00;68.00
76613;DHT22;65507;48.454;-2.058;2023-05-20T00:11:41;12.00;67.90
76613;DHT22;65507;48.454;-2.058;2023-05-20T00:14:07;12.00;68.00
76613;DHT22;65507;48.454;-2.058;2023-05-20T00:16:32;11.90;67.90
76613;DHT22;65507;48.454;-2.058;2023-05-20T00:18:58;11.90;67.90
76613;DHT22;65507;48.454;-2.058;2023-05-20T00:21:23;11.90;67.90
76613;DHT22;65507;48.454;-2.058;2023-05-20T00:23:49;11.90;67.90
76613;DHT22;65507;48.454;-2.058;2023-05-20T00:26:15;11.90;67.90
76613;DHT22;65507;48.454;-2.058;2023-05-20T00:28:40;11.90;67.90
76613;DHT22;65507;48.454;-2.058;2023-05-20T00:31:06;11.80;67.80
76613;DHT22;65507;48.454;-2.058;2023-05-20T00:33:32;11.80;67.80
76613;DHT22;65507;48.454;-2.058;2023-05-20T00:35:57;11.80;67.90
76613;DHT22;65507;48.454;-2.058;2023-05-20T00:38:23;11.80;68.80
76613;DHT22;65507;48.454;-2.058;2023-05-20T00:40:48;11.80;67.80
76613;DHT22;65507;48.454;-2.058;2023-05-20T00:43:14;11.70;67.80
76613;DHT22;65507;48.454;-2.058;2023-05-20T00:45:39;11.70;67.80
76613;DHT22;65507;48.454;-2.058;2023-05-20T00:48:05;11.70;67.80
76613;DHT22;65507;48.454;-2.058;2023-05-20T00:50:31;11.60;68.00
76613;DHT22;65507;48.454;-2.058;2023-05-20T00:52:57;11.60;69.00
76613;DHT22;65507;48.454;-2.058;2023-05-20T00:55:23;11.60;68.10
76613;DHT22;65507;48.454;-2.058;2023-05-20T00:57:48;11.60;68.10
76613;DHT22;65507;48.454;-2.058;2023-05-20T01:00:14;11.50;68.10
76613;DHT22;65507;48.454;-2.058;2023-05-20T01:02:40;11.50;68.90
76613;DHT22;65507;48.454;-2.058;2023-05-20T01:05:05;11.50;68.00
76613;DHT22;65507;48.454;-2.058;2023-05-20T01:07:31;11.50;68.10
76613;DHT22;65507;48.454;-2.058;2023-05-20T01:09:57;11.50;68.00
76613;DHT22;65507;48.454;-2.058;2023-05-20T01:14:50;11.50;68.00
76613;DHT22;65507;48.454;-2.058;2023-05-20T01:17:20;11.50;68.10
76613;DHT22;65507;48.454;-2.058;2023-05-20T01:19:47;11.50;68.10
76613;DHT22;65507;48.454;-2.058;2023-05-20T01:22:13;11.50;68.10
76613;DHT22;65507;48.454;-2.058;2023-05-20T01:24:40;11.50;68.10
76613;DHT22;65507;48.454;-2.058;2023-05-20T01:27:06;11.50;68.10
76613;DHT22;65507;48.454;-2.058;2023-05-20T01:29:35;11.50;68.20
76613;DHT22;65507;48.454;-2.058;2023-05-20T01:32:01;11.50;68.20
76613;DHT22;65507;48.454;-2.058;2023-05-20T01:34:27;11.50;68.10
76613;DHT22;65507;48.454;-2.058;2023-05-20T01:36:53;11.50;68.10
76613;DHT22;65507;48.454;-2.058;2023-05-20T01:39:19;11.50;68.10
76613;DHT22;65507;48.454;-2.058;2023-05-20T01:41:45;11.40;68.10
76613;DHT22;65507;48.454;-2.058;2023-05-20T01:44:11;11.40;68.00
76613;DHT22;65507;48.454;-2.058;2023-05-20T01:46:37;11.40;68.10
76613;DHT22;65507;48.454;-2.058;2023-05-20T01:49:03;11.40;68.10
76613;DHT22;65507;48.454;-2.058;2023-05-20T01:51:28;11.40;68.20
76613;DHT22;65507;48.454;-2.058;2023-05-20T01:53:55;11.40;68.20
76613;DHT22;65507;48.454;-2.058;2023-05-20T01:56:20;11.40;68.20
76613;DHT22;65507;48.454;-2.058;2023-05-20T01:58:46;11.40;68.20
76613;DHT22;65507;48.454;-2.058;2023-05-20T02:01:11;11.40;68.10
76613;DHT22;65507;48.454;-2.058;2023-05-20T02:03:37;11.40;68.20
76613;DHT22;65507;48.454;-2.058;2023-05-20T02:06:02;11.40;68.20
76613;DHT22;65507;48.454;-2.058;2023-05-20T02:08:28;11.30;68.10
76613;DHT22;65507;48.454;-2.058;2023-05-20T02:10:53;11.30;68.10
76613;DHT22;65507;48.454;-2.058;2023-05-20T02:13:19;11.30;68.10
76613;DHT22;65507;48.454;-2.058;2023-05-20T02:15:45;11.30;68.10
76613;DHT22;65507;48.454;-2.058;2023-05-20T02:18:10;11.30;68.20
76613;DHT22;65507;48.454;-2.058;2023-05-20T02:20:37;11.30;68.10
76613;DHT22;65507;48.454;-2.058;2023-05-20T02:23:02;11.30;68.10
76613;DHT22;65507;48.454;-2.058;2023-05-20T02:25:30;11.30;68.20
76613;DHT22;65507;48.454;-2.058;2023-05-20T02:27:56;11.30;68.10
76613;DHT22;65507;48.454;-2.058;2023-05-20T02:30:22;11.30;68.10
76613;DHT22;65507;48.454;-2.058;2023-05-20T02:32:47;11.30;68.10
76613;DHT22;65507;48.454;-2.058;2023-05-20T02:35:13;11.20;68.10
76613;DHT22;65507;48.454;-2.058;2023-05-20T02:37:38;11.20;68.20
76613;DHT22;65507;48.454;-2.058;2023-05-20T02:40:04;11.20;68.20
76613;DHT22;65507;48.454;-2.058;2023-05-20T02:42:30;12.00;68.80
76613;DHT22;65507;48.454;-2.058;2023-05-20T02:44:56;11.20;68.30
76613;DHT22;65507;48.454;-2.058;2023-05-20T02:47:23;11.20;68.30
76613;DHT22;65507;48.454;-2.058;2023-05-20T02:49:49;11.10;68.30
76613;DHT22;65507;48.454;-2.058;2023-05-20T02:52:15;11.10;68.30
76613;DHT22;65507;48.454;-2.058;2023-05-20T02:54:40;11.10;68.40
76613;DHT22;65507;48.454;-2.058;2023-05-20T02:57:06;11.10;68.50
76613;DHT22;65507;48.454;-2.058;2023-05-20T02:59:31;11.00;68.50
76613;DHT22;65507;48.454;-2.058;2023-05-20T03:01:57;11.00;68.60
76613;DHT22;65507;48.454;-2.058;2023-05-20T03:04:22;11.00;68.70
76613;DHT22;65507;48.454;-2.058;2023-05-20T03:06:50;11.00;68.70
76613;DHT22;65507;48.454;-2.058;2023-05-20T03:09:16;10.90;68.70
76613;DHT22;65507;48.454;-2.058;2023-05-20T03:11:43;10.90;68.60
76613;DHT22;65507;48.454;-2.058;2023-05-20T03:14:08;10.90;68.50
76613;DHT22;65507;48.454;-2.058;2023-05-20T03:16:34;10.90;68.50
76613;DHT22;65507;48.454;-2.058;2023-05-20T03:19:00;10.90;68.40
76613;DHT22;65507;48.454;-2.058;2023-05-20T03:21:25;11.00;68.50
76613;DHT22;65507;48.454;-2.058;2023-05-20T03:23:51;11.00;68.50
76613;DHT22;65507;48.454;-2.058;2023-05-20T03:26:16;11.00;68.40
76613;DHT22;65507;48.454;-2.058;2023-05-20T03:28:42;11.00;68.40
76613;DHT22;65507;48.454;-2.058;2023-05-20T03:31:07;11.00;68.40
76613;DHT22;65507;48.454;-2.058;2023-05-20T03:33:33;11.00;68.40
76613;DHT22;65507;48.454;-2.058;2023-05-20T03:35:59;11.00;68.50
76613;DHT22;65507;48.454;-2.058;2023-05-20T03:38:25;11.10;68.50
76613;DHT22;65507;48.454;-2.058;2023-05-20T03:40:51;11.00;68.40
76613;DHT22;65507;48.454;-2.058;2023-05-20T03:43:16;11.00;68.40
76613;DHT22;65507;48.454;-2.058;2023-05-20T03:45:42;11.10;68.30
76613;DHT22;65507;48.454;-2.058;2023-05-20T03:48:07;11.10;68.30
76613;DHT22;65507;48.454;-2.058;2023-05-20T03:50:33;11.10;68.30
76613;DHT22;65507;48.454;-2.058;2023-05-20T03:52:58;11.10;68.20
76613;DHT22;65507;48.454;-2.058;2023-05-20T03:55:24;11.10;68.20
76613;DHT22;65507;48.454;-2.058;2023-05-20T03:57:50;11.10;68.20
76613;DHT22;65507;48.454;-2.058;2023-05-20T04:00:15;11.10;68.20
76613;DHT22;65507;48.454;-2.058;2023-05-20T04:02:41;11.10;68.20
76613;DHT22;65507;48.454;-2.058;2023-05-20T04:05:07;11.10;68.20
76613;DHT22;65507;48.454;-2.058;2023-05-20T04:07:34;11.10;68.30
76613;DHT22;65507;48.454;-2.058;2023-05-20T04:10:01;11.10;68.30
76613;DHT22;65507;48.454;-2.058;2023-05-20T04:12:26;11.10;68.40
76613;DHT22;65507;48.454;-2.058;2023-05-20T04:15:03;11.10;68.40
76613;DHT22;65507;48.454;-2.058;2023-05-20T04:17:29;11.10;68.40
76613;DHT22;65507;48.454;-2.058;2023-05-20T04:19:55;11.10;68.40
76613;DHT22;65507;48.454;-2.058;2023-05-20T04:22:22;11.10;68.50
76613;DHT22;65507;48.454;-2.058;2023-05-20T04:24:48;11.10;68.60
76613;DHT22;65507;48.454;-2.058;2023-05-20T04:27:13;11.10;68.50
76613;DHT22;65507;48.454;-2.058;2023-05-20T04:29:40;11.10;68.50
76613;DHT22;65507;48.454;-2.058;2023-05-20T04:32:11;11.10;68.60
76613;DHT22;65507;48.454;-2.058;2023-05-20T04:34:37;11.10;68.50
76613;DHT22;65507;48.454;-2.058;2023-05-20T04:37:03;11.10;68.50
76613;DHT22;65507;48.454;-2.058;2023-05-20T04:39:28;11.10;68.50
76613;DHT22;65507;48.454;-2.058;2023-05-20T04:41:54;11.20;68.60
76613;DHT22;65507;48.454;-2.058;2023-05-20T04:44:20;11.20;68.50
76613;DHT22;65507;48.454;-2.058;2023-05-20T04:46:46;11.20;68.50
76613;DHT22;65507;48.454;-2.058;2023-05-20T04:49:12;11.20;68.50
76613;DHT22;65507;48.454;-2.058;2023-05-20T04:51:39;11.20;68.60
76613;DHT22;65507;48.454;-2.058;2023-05-20T04:54:06;11.20;68.50
76613;DHT22;65507;48.454;-2.058;2023-05-20T04:56:31;11.20;68.50
76613;DHT22;65507;48.454;-2.058;2023-05-20T04:58:57;11.20;68.50
76613;DHT22;65507;48.454;-2.058;2023-05-20T05:01:23;11.30;68.80
76613;DHT22;65507;48.454;-2.058;2023-05-20T05:03:49;11.30;68.60
76613;DHT22;65507;48.454;-2.058;2023-05-20T05:06:14;11.30;68.50
76613;DHT22;65507;48.454;-2.058;2023-05-20T05:08:40;11.30;68.50
76613;DHT22;65507;48.454;-2.058;2023-05-20T05:11:05;11.30;68.70
76613;DHT22;65507;48.454;-2.058;2023-05-20T05:13:31;11.30;68.50
76613;DHT22;65507;48.454;-2.058;2023-05-20T05:15:57;11.30;68.40
76613;DHT22;65507;48.454;-2.058;2023-05-20T05:18:23;11.40;68.40
76613;DHT22;65507;48.454;-2.058;2023-05-20T05:20:48;11.40;68.40
76613;DHT22;65507;48.454;-2.058;2023-05-20T05:23:14;11.40;68.30
76613;DHT22;65507;48.454;-2.058;2023-05-20T05:25:39;11.40;68.30
76613;DHT22;65507;48.454;-2.058;2023-05-20T05:28:05;11.40;68.40
76613;DHT22;65507;48.454;-2.058;2023-05-20T05:30:31;11.50;68.40
76613;DHT22;65507;48.454;-2.058;2023-05-20T05:32:56;11.50;68.40
76613;DHT22;65507;48.454;-2.058;2023-05-20T05:35:25;11.50;69.40
76613;DHT22;65507;48.454;-2.058;2023-05-20T05:37:50;11.50;68.50
76613;DHT22;65507;48.454;-2.058;2023-05-20T05:40:16;11.50;68.50
76613;DHT22;65507;48.454;-2.058;2023-05-20T05:42:41;11.50;68.40
76613;DHT22;65507;48.454;-2.058;2023-05-20T05:45:07;11.60;68.40
76613;DHT22;65507;48.454;-2.058;2023-05-20T05:47:33;11.60;69.30
76613;DHT22;65507;48.454;-2.058;2023-05-20T05:49:58;11.60;68.20
76613;DHT22;65507;48.454;-2.058;2023-05-20T05:52:25;11.70;68.30
76613;DHT22;65507;48.454;-2.058;2023-05-20T05:54:50;11.70;68.20
76613;DHT22;65507;48.454;-2.058;2023-05-20T05:57:16;11.70;68.30
76613;DHT22;65507;48.454;-2.058;2023-05-20T05:59:41;11.80;68.30
76613;DHT22;65507;48.454;-2.058;2023-05-20T06:02:07;11.90;68.30
76613;DHT22;65507;48.454;-2.058;2023-05-20T06:04:34;12.00;68.20
76613;DHT22;65507;48.454;-2.058;2023-05-20T06:07:00;12.00;68.00
76613;DHT22;65507;48.454;-2.058;2023-05-20T06:09:26;12.20;68.10
76613;DHT22;65507;48.454;-2.058;2023-05-20T06:11:52;12.30;68.10
76613;DHT22;65507;48.454;-2.058;2023-05-20T06:14:17;12.40;67.80
76613;DHT22;65507;48.454;-2.058;2023-05-20T06:16:43;12.50;67.90
76613;DHT22;65507;48.454;-2.058;2023-05-20T06:19:08;12.60;67.80
76613;DHT22;65507;48.454;-2.058;2023-05-20T06:21:34;12.70;67.80
76613;DHT22;65507;48.454;-2.058;2023-05-20T06:23:59;12.80;67.50
76613;DHT22;65507;48.454;-2.058;2023-05-20T06:26:25;12.80;67.50
76613;DHT22;65507;48.454;-2.058;2023-05-20T06:28:50;12.80;67.70
76613;DHT22;65507;48.454;-2.058;2023-05-20T06:31:17;12.80;68.00
76613;DHT22;65507;48.454;-2.058;2023-05-20T06:33:43;12.80;69.20
76613;DHT22;65507;48.454;-2.058;2023-05-20T06:36:09;12.80;68.30
76613;DHT22;65507;48.454;-2.058;2023-05-20T06:38:34;12.90;68.30
76613;DHT22;65507;48.454;-2.058;2023-05-20T06:41:00;13.00;68.10
76613;DHT22;65507;48.454;-2.058;2023-05-20T06:43:28;12.70;67.70
76613;DHT22;65507;48.454;-2.058;2023-05-20T06:45:54;13.20;67.90
76613;DHT22;65507;48.454;-2.058;2023-05-20T06:48:20;13.10;68.00
76613;DHT22;65507;48.454;-2.058;2023-05-20T06:50:45;13.10;68.10
76613;DHT22;65507;48.454;-2.058;2023-05-20T06:53:11;13.10;68.40
76613;DHT22;65507;48.454;-2.058;2023-05-20T06:55:36;13.10;68.40
76613;DHT22;65507;48.454;-2.058;2023-05-20T06:58:02;13.20;68.30
76613;DHT22;65507;48.454;-2.058;2023-05-20T07:00:27;13.20;68.40
76613;DHT22;65507;48.454;-2.058;2023-05-20T07:02:53;13.20;68.40
76613;DHT22;65507;48.454;-2.058;2023-05-20T07:05:19;13.30;68.30
76613;DHT22;65507;48.454;-2.058;2023-05-20T07:07:44;13.30;68.20
76613;DHT22;65507;48.454;-2.058;2023-05-20T07:10:10;13.40;68.30
76613;DHT22;65507;48.454;-2.058;2023-05-20T07:12:35;13.40;68.30
76613;DHT22;65507;48.454;-2.058;2023-05-20T07:15:01;13.40;68.40
76613;DHT22;65507;48.454;-2.058;2023-05-20T07:17:29;13.40;68.30
76613;DHT22;65507;48.454;-2.058;2023-05-20T07:19:55;13.40;68.30
76613;DHT22;65507;48.454;-2.058;2023-05-20T07:22:21;13.50;68.40
76613;DHT22;65507;48.454;-2.058;2023-05-20T07:24:46;13.50;69.30
76613;DHT22;65507;48.454;-2.058;2023-05-20T07:27:12;13.50;68.50
76613;DHT22;65507;48.454;-2.058;2023-05-20T07:29:37;13.50;68.50
76613;DHT22;65507;48.454;-2.058;2023-05-20T07:32:03;13.50;68.60
76613;DHT22;65507;48.454;-2.058;2023-05-20T07:34:29;13.50;69.70
76613;DHT22;65507;48.454;-2.058;2023-05-20T07:36:55;13.60;68.80
76613;DHT22;65507;48.454;-2.058;2023-05-20T07:39:22;13.60;68.70
76613;DHT22;65507;48.454;-2.058;2023-05-20T07:41:48;13.70;68.50
76613;DHT22;65507;48.454;-2.058;2023-05-20T07:44:13;13.70;68.40
76613;DHT22;65507;48.454;-2.058;2023-05-20T07:46:39;13.70;68.50
76613;DHT22;65507;48.454;-2.058;2023-05-20T07:49:06;13.70;68.70
76613;DHT22;65507;48.454;-2.058;2023-05-20T07:51:31;13.70;68.60
76613;DHT22;65507;48.454;-2.058;2023-05-20T07:53:57;13.80;68.40
76613;DHT22;65507;48.454;-2.058;2023-05-20T07:56:22;13.90;68.20
76613;DHT22;65507;48.454;-2.058;2023-05-20T07:58:52;14.00;68.20
76613;DHT22;65507;48.454;-2.058;2023-05-20T08:01:18;14.10;68.00
76613;DHT22;65507;48.454;-2.058;2023-05-20T08:03:44;13.10;67.40
76613;DHT22;65507;48.454;-2.058;2023-05-20T08:06:09;14.10;68.10
76613;DHT22;65507;48.454;-2.058;2023-05-20T08:08:35;14.10;68.20
76613;DHT22;65507;48.454;-2.058;2023-05-20T08:11:01;14.00;68.30
76613;DHT22;65507;48.454;-2.058;2023-05-20T08:13:26;14.10;68.40
76613;DHT22;65507;48.454;-2.058;2023-05-20T08:15:52;14.20;68.20
76613;DHT22;65507;48.454;-2.058;2023-05-20T08:18:18;14.30;68.00
76613;DHT22;65507;48.454;-2.058;2023-05-20T08:20:44;14.40;67.80
76613;DHT22;65507;48.454;-2.058;2023-05-20T08:23:12;14.40;67.90
76613;DHT22;65507;48.454;-2.058;2023-05-20T08:25:38;14.40;67.90
76613;DHT22;65507;48.454;-2.058;2023-05-20T08:28:04;14.50;68.00
76613;DHT22;65507;48.454;-2.058;2023-05-20T08:30:31;14.60;67.80
76613;DHT22;65507;48.454;-2.058;2023-05-20T08:32:56;14.70;67.60
76613;DHT22;65507;48.454;-2.058;2023-05-20T08:35:22;14.80;67.50
76613;DHT22;65507;48.454;-2.058;2023-05-20T08:37:48;14.90;67.50
76613;DHT22;65507;48.454;-2.058;2023-05-20T08:40:14;15.00;67.30
76613;DHT22;65507;48.454;-2.058;2023-05-20T08:42:42;15.20;67.10
76613;DHT22;65507;48.454;-2.058;2023-05-20T08:45:12;15.40;66.80
76613;DHT22;65507;48.454;-2.058;2023-05-20T08:47:40;15.60;66.40
76613;DHT22;65507;48.454;-2.058;2023-05-20T08:50:06;15.80;66.20
76613;DHT22;65507;48.454;-2.058;2023-05-20T08:52:33;15.90;66.00
76613;DHT22;65507;48.454;-2.058;2023-05-20T08:54:59;16.10;65.80
76613;DHT22;65507;48.454;-2.058;2023-05-20T08:57:25;16.20;65.90
76613;DHT22;65507;48.454;-2.058;2023-05-20T08:59:52;16.30;65.60
76613;DHT22;65507;48.454;-2.058;2023-05-20T09:02:17;16.40;65.70
76613;DHT22;65507;48.454;-2.058;2023-05-20T09:04:43;16.40;65.50
76613;DHT22;65507;48.454;-2.058;2023-05-20T09:07:08;16.30;65.70
76613;DHT22;65507;48.454;-2.058;2023-05-20T09:09:34;16.30;66.00
76613;DHT22;65507;48.454;-2.058;2023-05-20T09:12:00;16.30;66.20
76613;DHT22;65507;48.454;-2.058;2023-05-20T09:14:27;16.20;66.30
76613;DHT22;65507;48.454;-2.058;2023-05-20T09:16:53;16.10;66.40
76613;DHT22;65507;48.454;-2.058;2023-05-20T09:19:20;16.10;66.70
76613;DHT22;65507;48.454;-2.058;2023-05-20T09:21:46;16.00;66.80
76613;DHT22;65507;48.454;-2.058;2023-05-20T09:24:12;16.00;66.90
76613;DHT22;65507;48.454;-2.058;2023-05-20T09:26:37;16.10;66.80
76613;DHT22;65507;48.454;-2.058;2023-05-20T09:29:03;16.10;66.60
76613;DHT22;65507;48.454;-2.058;2023-05-20T09:31:29;16.20;66.50
76613;DHT22;65507;48.454;-2.058;2023-05-20T09:33:55;16.20;66.40
76613;DHT22;65507;48.454;-2.058;2023-05-20T09:36:21;15.70;66.20
76613;DHT22;65507;48.454;-2.058;2023-05-20T09:38:47;16.10;66.60
76613;DHT22;65507;48.454;-2.058;2023-05-20T09:41:17;16.00;66.70
76613;DHT22;65507;48.454;-2.058;2023-05-20T09:43:42;16.10;66.70
76613;DHT22;65507;48.454;-2.058;2023-05-20T09:46:09;16.20;66.50
76613;DHT22;65507;48.454;-2.058;2023-05-20T09:48:35;16.30;66.30
76613;DHT22;65507;48.454;-2.058;2023-05-20T09:51:04;16.40;66.20
76613;DHT22;65507;48.454;-2.058;2023-05-20T09:53:30;16.50;66.00
76613;DHT22;65507;48.454;-2.058;2023-05-20T09:55:55;16.50;65.90
76613;DHT22;65507;48.454;-2.058;2023-05-20T09:58:21;16.60;65.90
76613;DHT22;65507;48.454;-2.058;2023-05-20T10:00:47;16.70;65.80
76613;DHT22;65507;48.454;-2.058;2023-05-20T10:03:13;16.90;65.60
76613;DHT22;65507;48.454;-2.058;2023-05-20T10:05:50;17.10;65.20
76613;DHT22;65507;48.454;-2.058;2023-05-20T10:10:53;17.40;64.70
76613;DHT22;65507;48.454;-2.058;2023-05-20T10:15:52;17.40;64.70
76613;DHT22;65507;48.454;-2.058;2023-05-20T10:20:48;17.30;65.20
76613;DHT22;65507;48.454;-2.058;2023-05-20T10:23:20;17.30;65.20
76613;DHT22;65507;48.454;-2.058;2023-05-20T10:25:53;17.40;65.10
76613;DHT22;65507;48.454;-2.058;2023-05-20T10:28:29;17.40;65.10
76613;DHT22;65507;48.454;-2.058;2023-05-20T10:30:55;17.40;65.00
76613;DHT22;65507;48.454;-2.058;2023-05-20T10:33:20;17.50;64.80
76613;DHT22;65507;48.454;-2.058;2023-05-20T10:35:48;17.70;64.70
76613;DHT22;65507;48.454;-2.058;2023-05-20T10:38:14;17.80;64.40
76613;DHT22;65507;48.454;-2.058;2023-05-20T10:40:40;18.10;64.10
76613;DHT22;65507;48.454;-2.058;2023-05-20T10:43:11;18.10;63.70
76613;DHT22;65507;48.454;-2.058;2023-05-20T10:45:52;18.20;63.70
76613;DHT22;65507;48.454;-2.058;2023-05-20T10:48:40;18.40;63.60
76613;DHT22;65507;48.454;-2.058;2023-05-20T10:51:09;18.50;63.50
76613;DHT22;65507;48.454;-2.058;2023-05-20T10:53:39;18.40;63.60
76613;DHT22;65507;48.454;-2.058;2023-05-20T10:56:05;18.40;63.80
76613;DHT22;65507;48.454;-2.058;2023-05-20T10:58:37;18.40;64.00
76613;DHT22;65507;48.454;-2.058;2023-05-20T11:01:03;18.40;64.00
76613;DHT22;65507;48.454;-2.058;2023-05-20T11:03:29;18.40;64.10
76613;DHT22;65507;48.454;-2.058;2023-05-20T11:05:54;18.40;64.10
76613;DHT22;65507;48.454;-2.058;2023-05-20T11:08:20;18.50;64.00
76613;DHT22;65507;48.454;-2.058;2023-05-20T11:10:46;18.50;63.90
76613;DHT22;65507;48.454;-2.058;2023-05-20T11:13:12;18.60;63.90
76613;DHT22;65507;48.454;-2.058;2023-05-20T11:15:38;18.70;63.70
76613;DHT22;65507;48.454;-2.058;2023-05-20T11:18:03;18.80;63.60
76613;DHT22;65507;48.454;-2.058;2023-05-20T11:20:29;18.80;63.50
76613;DHT22;65507;48.454;-2.058;2023-05-20T11:22:55;18.90;63.50
76613;DHT22;65507;48.454;-2.058;2023-05-20T11:25:21;18.90;63.40
76613;DHT22;65507;48.454;-2.058;2023-05-20T11:27:50;18.90;63.30
76613;DHT22;65507;48.454;-2.058;2023-05-20T11:30:16;18.90;63.40
76613;DHT22;65507;48.454;-2.058;2023-05-20T11:32:43;18.90;63.50
76613;DHT22;65507;48.454;-2.058;2023-05-20T11:35:21;18.90;63.40
76613;DHT22;65507;48.454;-2.058;2023-05-20T11:37:54;18.90;63.30
76613;DHT22;65507;48.454;-2.058;2023-05-20T11:40:23;19.00;63.30
76613;DHT22;65507;48.454;-2.058;2023-05-20T11:42:53;18.90;63.40
76613;DHT22;65507;48.454;-2.058;2023-05-20T11:45:19;18.80;63.70
76613;DHT22;65507;48.454;-2.058;2023-05-20T11:47:45;18.80;63.70
76613;DHT22;65507;48.454;-2.058;2023-05-20T11:50:15;18.80;63.50
76613;DHT22;65507;48.454;-2.058;2023-05-20T11:52:41;18.90;63.30
76613;DHT22;65507;48.454;-2.058;2023-05-20T11:55:10;19.00;63.20
76613;DHT22;65507;48.454;-2.058;2023-05-20T11:57:36;19.00;63.30
76613;DHT22;65507;48.454;-2.058;2023-05-20T12:00:02;19.00;63.40
76613;DHT22;65507;48.454;-2.058;2023-05-20T12:02:31;18.90;63.50
76613;DHT22;65507;48.454;-2.058;2023-05-20T12:04:56;18.80;63.80
76613;DHT22;65507;48.454;-2.058;2023-05-20T12:07:22;18.70;63.80
76613;DHT22;65507;48.454;-2.058;2023-05-20T12:09:47;18.70;63.90
76613;DHT22;65507;48.454;-2.058;2023-05-20T12:12:13;18.60;64.10
76613;DHT22;65507;48.454;-2.058;2023-05-20T12:14:39;18.50;64.20
76613;DHT22;65507;48.454;-2.058;2023-05-20T12:17:04;18.50;64.20
76613;DHT22;65507;48.454;-2.058;2023-05-20T12:19:30;18.50;64.10
76613;DHT22;65507;48.454;-2.058;2023-05-20T12:21:55;18.50;64.10
76613;DHT22;65507;48.454;-2.058;2023-05-20T12:24:21;18.50;64.10
76613;DHT22;65507;48.454;-2.058;2023-05-20T12:26:46;18.50;64.10
76613;DHT22;65507;48.454;-2.058;2023-05-20T12:29:12;18.40;64.10
76613;DHT22;65507;48.454;-2.058;2023-05-20T12:31:37;18.40;64.20
76613;DHT22;65507;48.454;-2.058;2023-05-20T12:34:03;18.40;64.20
76613;DHT22;65507;48.454;-2.058;2023-05-20T12:36:28;18.40;64.10
76613;DHT22;65507;48.454;-2.058;2023-05-20T12:38:54;18.40;64.00
76613;DHT22;65507;48.454;-2.058;2023-05-20T12:41:19;18.50;63.90
76613;DHT22;65507;48.454;-2.058;2023-05-20T12:43:45;18.50;63.70
76613;DHT22;65507;48.454;-2.058;2023-05-20T12:46:11;18.60;63.70
76613;DHT22;65507;48.454;-2.058;2023-05-20T12:48:36;18.60;63.60
76613;DHT22;65507;48.454;-2.058;2023-05-20T12:51:02;18.60;63.60
76613;DHT22;65507;48.454;-2.058;2023-05-20T12:53:28;18.40;63.80
76613;DHT22;65507;48.454;-2.058;2023-05-20T12:55:53;18.20;64.20
76613;DHT22;65507;48.454;-2.058;2023-05-20T12:58:19;18.20;64.30
76613;DHT22;65507;48.454;-2.058;2023-05-20T13:00:44;18.10;64.40
76613;DHT22;65507;48.454;-2.058;2023-05-20T13:03:10;18.00;64.70
76613;DHT22;65507;48.454;-2.058;2023-05-20T13:05:35;17.90;64.70
76613;DHT22;65507;48.454;-2.058;2023-05-20T13:08:01;17.70;64.90
76613;DHT22;65507;48.454;-2.058;2023-05-20T13:10:26;17.60;65.10
76613;DHT22;65507;48.454;-2.058;2023-05-20T13:12:52;17.70;65.00
76613;DHT22;65507;48.454;-2.058;2023-05-20T13:15:17;17.70;64.80
76613;DHT22;65507;48.454;-2.058;2023-05-20T13:17:43;17.80;64.60
76613;DHT22;65507;48.454;-2.058;2023-05-20T13:20:09;17.80;64.50
76613;DHT22;65507;48.454;-2.058;2023-05-20T13:22:35;17.90;64.30
76613;DHT22;65507;48.454;-2.058;2023-05-20T13:25:00;17.90;64.20
76613;DHT22;65507;48.454;-2.058;2023-05-20T13:27:26;17.90;64.10
76613;DHT22;65507;48.454;-2.058;2023-05-20T13:29:52;17.90;64.10
76613;DHT22;65507;48.454;-2.058;2023-05-20T13:32:17;17.30;63.90
76613;DHT22;65507;48.454;-2.058;2023-05-20T13:34:43;17.80;64.20
76613;DHT22;65507;48.454;-2.058;2023-05-20T13:37:09;17.90;64.10
76613;DHT22;65507;48.454;-2.058;2023-05-20T13:39:34;17.90;63.90
76613;DHT22;65507;48.454;-2.058;2023-05-20T13:42:00;18.00;63.70
76613;DHT22;65507;48.454;-2.058;2023-05-20T13:44:26;18.10;63.60
76613;DHT22;65507;48.454;-2.058;2023-05-20T13:46:51;18.20;63.40
76613;DHT22;65507;48.454;-2.058;2023-05-20T13:49:17;18.30;63.30
76613;DHT22;65507;48.454;-2.058;2023-05-20T13:51:43;18.30;63.00
76613;DHT22;65507;48.454;-2.058;2023-05-20T13:54:08;18.30;63.10
76613;DHT22;65507;48.454;-2.058;2023-05-20T13:56:34;18.30;63.10
76613;DHT22;65507;48.454;-2.058;2023-05-20T13:58:59;18.40;63.10
76613;DHT22;65507;48.454;-2.058;2023-05-20T14:01:26;18.30;63.20
76613;DHT22;65507;48.454;-2.058;2023-05-20T14:03:51;18.30;63.20
76613;DHT22;65507;48.454;-2.058;2023-05-20T14:06:17;18.30;63.20
76613;DHT22;65507;48.454;-2.058;2023-05-20T14:08:43;18.40;63.20
76613;DHT22;65507;48.454;-2.058;2023-05-20T14:11:09;18.40;63.00
76613;DHT22;65507;48.454;-2.058;2023-05-20T14:13:35;18.50;62.90
76613;DHT22;65507;48.454;-2.058;2023-05-20T14:16:00;18.60;62.80
76613;DHT22;65507;48.454;-2.058;2023-05-20T14:18:26;18.50;62.80
76613;DHT22;65507;48.454;-2.058;2023-05-20T14:20:51;18.50;63.00
76613;DHT22;65507;48.454;-2.058;2023-05-20T14:23:17;18.50;63.00
76613;DHT22;65507;48.454;-2.058;2023-05-20T14:25:42;18.50;62.80
76613;DHT22;65507;48.454;-2.058;2023-05-20T14:28:08;18.40;62.90
76613;DHT22;65507;48.454;-2.058;2023-05-20T14:30:34;18.40;63.10
76613;DHT22;65507;48.454;-2.058;2023-05-20T14:32:59;18.30;63.20
76613;DHT22;65507;48.454;-2.058;2023-05-20T14:35:25;18.20;63.40
76613;DHT22;65507;48.454;-2.058;2023-05-20T14:37:51;18.10;63.30
76613;DHT22;65507;48.454;-2.058;2023-05-20T14:40:16;18.30;63.30
76613;DHT22;65507;48.454;-2.058;2023-05-20T14:42:43;18.40;63.10
76613;DHT22;65507;48.454;-2.058;2023-05-20T14:45:08;18.40;63.00
76613;DHT22;65507;48.454;-2.058;2023-05-20T14:47:34;18.40;62.90
76613;DHT22;65507;48.454;-2.058;2023-05-20T14:49:59;18.40;63.00
76613;DHT22;65507;48.454;-2.058;2023-05-20T14:52:25;18.40;63.00
76613;DHT22;65507;48.454;-2.058;2023-05-20T14:54:51;18.40;63.10
76613;DHT22;65507;48.454;-2.058;2023-05-20T14:57:17;18.30;63.30
76613;DHT22;65507;48.454;-2.058;2023-05-20T14:59:42;18.20;63.40
76613;DHT22;65507;48.454;-2.058;2023-05-20T15:02:08;18.10;63.50
76613;DHT22;65507;48.454;-2.058;2023-05-20T15:04:34;18.00;63.60
76613;DHT22;65507;48.454;-2.058;2023-05-20T15:06:59;18.00;63.80
76613;DHT22;65507;48.454;-2.058;2023-05-20T15:09:25;18.00;63.80
76613;DHT22;65507;48.454;-2.058;2023-05-20T15:11:51;17.90;63.80
76613;DHT22;65507;48.454;-2.058;2023-05-20T15:14:16;17.90;63.70
76613;DHT22;65507;48.454;-2.058;2023-05-20T15:16:42;17.90;63.80
76613;DHT22;65507;48.454;-2.058;2023-05-20T15:19:09;17.90;63.70